createdAt,value
2023-03-08T00:01:33.881Z,95024.78
2023-03-08T00:04:03.590Z,95041.31
2023-03-08T00:06:31.535Z,95046.03
2023-03-08T00:09:00.231Z,95036.81
2023-03-08T00:11:29.444Z,94830.59
2023-03-08T00:14:03.279Z,95010.84
2023-03-08T00:16:31.404Z,95046.22
2023-03-08T00:19:02.160Z,95040.06
2023-03-08T00:21:29.896Z,95037.03
2023-03-08T00:24:07.149Z,95033.88
2023-03-08T00:26:35.082Z,95051.72
2023-03-08T00:29:07.646Z,95048.75
2023-03-08T00:31:37.918Z,95059.75
2023-03-08T00:34:08.602Z,95069.28
2023-03-08T00:36:36.384Z,95075.81
2023-03-08T00:39:12.009Z,95047.13
2023-03-08T00:41:41.508Z,95065.22
2023-03-08T00:44:13.403Z,95057.88
2023-03-08T00:46:44.036Z,95041.03
2023-03-08T00:49:13.137Z,94952.91
2023-03-08T00:51:41.355Z,95023.78
2023-03-08T00:54:09.679Z,95017.72
2023-03-08T00:56:39.499Z,95019.06
2023-03-08T00:59:11.115Z,94869.59
2023-03-08T01:01:43.095Z,94993.59
2023-03-08T01:04:10.967Z,95022.34
2023-03-08T01:06:38.996Z,95021.09
2023-03-08T01:09:12.039Z,95012.88
2023-03-08T01:11:44.737Z,95008.97
2023-03-08T01:14:15.217Z,95016.56
2023-03-08T01:16:44.633Z,95009.50
2023-03-08T01:19:12.946Z,95001.69
2023-03-08T01:21:43.881Z,94982.00
2023-03-08T01:24:12.004Z,94989.09
2023-03-08T01:26:40.058Z,94981.78
2023-03-08T01:29:08.080Z,94980.59
2023-03-08T01:31:39.077Z,94976.13
2023-03-08T01:34:12.882Z,94972.50
2023-03-08T01:36:40.673Z,94972.59
2023-03-08T01:39:11.368Z,94975.19
2023-03-08T01:41:39.540Z,94959.81
2023-03-08T01:44:10.863Z,94951.41
2023-03-08T01:46:41.363Z,94914.13
2023-03-08T01:49:17.192Z,94937.75
2023-03-08T01:51:47.901Z,94957.03
2023-03-08T01:54:17.976Z,94950.09
2023-03-08T01:56:51.181Z,94939.91
2023-03-08T01:59:19.773Z,94949.66
2023-03-08T02:01:47.970Z,94948.75
2023-03-08T02:04:17.413Z,94937.81
2023-03-08T02:06:48.418Z,94957.75
2023-03-08T02:09:19.760Z,94961.34
2023-03-08T02:11:48.553Z,94966.13
2023-03-08T02:14:23.498Z,94963.34
2023-03-08T02:16:51.365Z,94963.88
2023-03-08T02:19:24.948Z,94945.22
2023-03-08T02:21:53.305Z,94947.66
2023-03-08T02:24:26.530Z,94935.84
2023-03-08T02:27:03.676Z,94930.13
2023-03-08T02:29:33.936Z,94936.63
2023-03-08T02:32:04.594Z,94924.78
2023-03-08T02:34:32.390Z,94933.25
2023-03-08T02:37:00.171Z,94930.59
2023-03-08T02:39:43.545Z,94884.47
2023-03-08T02:42:11.383Z,94916.22
2023-03-08T02:44:39.219Z,94912.50
2023-03-08T02:47:12.660Z,94918.53
2023-03-08T02:49:40.464Z,94891.31
2023-03-08T02:52:08.461Z,94915.47
2023-03-08T02:54:37.627Z,94903.16
2023-03-08T02:57:06.299Z,94835.72
2023-03-08T02:59:34.130Z,94908.09
2023-03-08T03:02:02.045Z,94890.78
2023-03-08T03:04:33.509Z,94888.22
2023-03-08T03:07:04.743Z,94896.31
2023-03-08T03:09:40.452Z,94879.03
2023-03-08T03:12:13.845Z,94874.88
2023-03-08T03:14:41.706Z,94780.81
2023-03-08T03:17:13.827Z,94847.03
2023-03-08T03:19:46.934Z,94851.00
2023-03-08T03:22:15.153Z,94723.00
2023-03-08T03:24:47.637Z,94845.63
2023-03-08T03:27:15.647Z,94833.19
2023-03-08T03:29:43.748Z,94839.59
2023-03-08T03:32:14.412Z,94579.66
2023-03-08T03:34:45.460Z,94836.31
2023-03-08T03:37:16.018Z,94824.31
2023-03-08T03:39:46.485Z,94825.03
2023-03-08T03:42:14.252Z,94814.72
2023-03-08T03:44:44.793Z,94808.47
2023-03-08T03:47:12.881Z,94798.94
2023-03-08T03:49:40.865Z,94806.56
2023-03-08T03:52:14.458Z,94789.75
2023-03-08T03:54:45.155Z,94809.13
2023-03-08T03:57:16.029Z,94800.56
2023-03-08T03:59:52.899Z,94812.09
2023-03-08T04:02:20.783Z,94759.50
2023-03-08T04:04:50.288Z,94801.00
2023-03-08T04:07:18.183Z,94802.63
2023-03-08T04:09:48.448Z,94803.47
2023-03-08T04:12:18.377Z,94806.88
2023-03-08T04:14:49.135Z,94772.16
2023-03-08T04:17:21.151Z,94781.97
2023-03-08T04:19:50.474Z,94770.75
2023-03-08T04:22:20.740Z,94783.69
2023-03-08T04:24:48.574Z,94782.06
2023-03-08T04:27:20.048Z,94782.19
2023-03-08T04:29:47.811Z,94794.59
2023-03-08T04:32:23.717Z,94728.47
2023-03-08T04:34:51.645Z,94774.88
2023-03-08T04:37:19.456Z,94730.06
2023-03-08T04:39:50.838Z,94750.22
2023-03-08T04:42:19.972Z,94746.66
2023-03-08T04:44:55.013Z,94677.78
2023-03-08T04:47:22.953Z,94734.03
2023-03-08T04:49:51.028Z,94717.69
2023-03-08T04:52:18.984Z,94730.16
2023-03-08T04:54:46.899Z,94718.78
2023-03-08T04:57:29.045Z,94702.22
2023-03-08T05:00:05.832Z,94712.47
2023-03-08T05:02:33.800Z,94716.88
2023-03-08T05:05:03.523Z,94701.16
2023-03-08T05:07:31.516Z,94669.19
2023-03-08T05:09:59.389Z,94615.09
2023-03-08T05:12:30.267Z,94699.34
2023-03-08T05:15:00.856Z,94708.16
2023-03-08T05:17:37.944Z,94716.00
2023-03-08T05:20:10.098Z,94671.53
2023-03-08T05:22:55.115Z,94693.47
2023-03-08T05:25:31.549Z,94688.44
2023-03-08T05:28:00.990Z,94681.56
2023-03-08T05:30:33.822Z,94690.88
2023-03-08T05:33:02.249Z,94668.78
2023-03-08T05:35:33.882Z,94673.28
2023-03-08T05:38:04.181Z,94662.59
2023-03-08T05:40:31.958Z,94672.34
2023-03-08T05:43:02.290Z,94672.81
2023-03-08T05:45:37.488Z,94636.03
2023-03-08T05:48:10.120Z,94689.09
2023-03-08T05:50:38.629Z,94682.13
2023-03-08T05:53:27.241Z,94555.34
2023-03-08T05:55:56.364Z,94692.69
2023-03-08T05:58:30.048Z,94448.22
2023-03-08T06:00:59.345Z,94644.13
2023-03-08T06:03:30.990Z,94661.53
2023-03-08T06:05:58.856Z,94638.09
2023-03-08T06:08:27.458Z,94647.34
2023-03-08T06:10:55.392Z,94670.38
2023-03-08T06:13:26.526Z,94666.25
2023-03-08T06:15:59.104Z,94676.16
2023-03-08T06:18:28.856Z,94618.88
2023-03-08T06:20:58.947Z,94658.97
2023-03-08T06:23:32.659Z,94650.13
2023-03-08T06:26:02.937Z,94604.06
2023-03-08T06:28:33.488Z,94636.94
2023-03-08T06:31:01.580Z,94603.81
2023-03-08T06:33:36.401Z,94623.31
2023-03-08T06:36:07.642Z,94628.66
2023-03-08T06:38:37.069Z,94621.25
2023-03-08T06:41:05.730Z,94597.78
2023-03-08T06:43:38.206Z,94623.41
2023-03-08T06:46:06.871Z,94621.28
2023-03-08T06:48:41.337Z,94624.66
2023-03-08T06:51:16.061Z,94617.28
2023-03-08T06:53:44.163Z,94625.75
2023-03-08T06:56:15.182Z,94620.44
2023-03-08T06:58:43.504Z,94610.84
2023-03-08T07:01:14.361Z,94616.34
2023-03-08T07:03:46.621Z,94610.84
2023-03-08T07:06:19.553Z,94620.69
2023-03-08T07:08:47.470Z,94600.03
2023-03-08T07:11:20.300Z,94639.34
2023-03-08T07:13:51.234Z,94604.03
2023-03-08T07:16:22.516Z,94613.50
2023-03-08T07:18:55.081Z,94611.97
2023-03-08T07:21:25.043Z,94614.88
2023-03-08T07:23:56.773Z,94597.34
2023-03-08T07:26:27.734Z,94599.75
2023-03-08T07:28:57.972Z,94558.06
2023-03-08T07:31:26.688Z,94594.41
2023-03-08T07:33:58.917Z,94596.75
2023-03-08T07:36:29.167Z,94585.59
2023-03-08T07:38:57.190Z,94571.97
2023-03-08T07:41:30.778Z,94575.78
2023-03-08T07:44:01.956Z,94567.38
2023-03-08T07:46:30.248Z,94528.78
2023-03-08T07:49:01.940Z,94561.50
2023-03-08T07:51:32.414Z,94570.13
2023-03-08T07:54:09.900Z,94553.00
2023-03-08T07:56:37.940Z,94533.28
2023-03-08T07:59:06.160Z,94529.88
2023-03-08T08:01:39.490Z,94553.28
2023-03-08T08:04:12.501Z,94527.69
2023-03-08T08:06:41.257Z,94502.97
2023-03-08T08:09:10.172Z,94459.50
2023-03-08T08:11:38.975Z,94533.44
2023-03-08T08:14:07.226Z,94516.16
2023-03-08T08:16:36.294Z,94516.34
2023-03-08T08:19:09.696Z,94516.81
2023-03-08T08:21:39.316Z,94490.75
2023-03-08T08:24:10.911Z,94485.25
2023-03-08T08:26:39.003Z,94467.34
2023-03-08T08:29:06.975Z,94479.75
2023-03-08T08:31:54.190Z,94407.91
2023-03-08T08:34:22.274Z,94472.84
2023-03-08T08:36:52.788Z,94474.72
2023-03-08T08:39:20.849Z,94466.31
2023-03-08T08:41:52.887Z,94432.94
2023-03-08T08:44:20.786Z,94464.47
2023-03-08T08:46:48.603Z,94387.69
2023-03-08T08:49:16.519Z,94450.69
2023-03-08T08:51:44.487Z,94445.91
2023-03-08T08:54:14.428Z,94447.69
2023-03-08T08:56:43.713Z,94433.94
2023-03-08T08:59:12.945Z,94428.59
2023-03-08T09:01:44.911Z,94410.19
2023-03-08T09:04:17.005Z,94406.47
2023-03-08T09:06:46.524Z,94310.13
2023-03-08T09:09:16.578Z,94418.63
2023-03-08T09:11:54.259Z,94432.75
2023-03-08T09:14:23.197Z,94432.00
2023-03-08T09:16:53.033Z,94426.91
2023-03-08T09:19:21.522Z,94414.94
2023-03-08T09:21:55.238Z,94420.34
2023-03-08T09:24:25.322Z,94413.97
2023-03-08T09:26:53.271Z,94417.19
2023-03-08T09:29:21.319Z,94412.13
2023-03-08T09:31:53.232Z,94411.78
2023-03-08T09:34:21.642Z,94355.88
2023-03-08T09:36:52.410Z,94387.56
2023-03-08T09:39:21.000Z,94389.91
2023-03-08T09:41:55.688Z,94353.69
2023-03-08T09:44:44.027Z,94336.78
2023-03-08T09:47:19.944Z,94347.50
2023-03-08T09:49:53.888Z,94382.19
2023-03-08T09:52:27.314Z,94367.78
2023-03-08T09:54:55.268Z,94382.81
2023-03-08T09:57:27.231Z,94372.94
2023-03-08T09:59:56.967Z,94363.38
2023-03-08T10:02:37.072Z,94305.66
2023-03-08T10:05:13.659Z,94344.13
2023-03-08T10:07:50.560Z,94354.81
2023-03-08T10:10:27.658Z,94276.56
2023-03-08T10:13:08.169Z,94352.00
2023-03-08T10:15:41.419Z,94340.50
2023-03-08T10:18:17.760Z,94326.97
2023-03-08T10:20:48.816Z,94344.69
2023-03-08T10:23:18.997Z,94347.13
2023-03-08T10:25:47.687Z,94347.69
2023-03-08T10:28:22.007Z,94247.03
2023-03-08T10:30:51.569Z,94323.91
2023-03-08T10:33:24.222Z,94308.22
2023-03-08T10:35:56.936Z,94319.53
2023-03-08T10:38:27.414Z,94317.31
2023-03-08T10:41:01.922Z,94323.72
2023-03-08T10:43:33.990Z,94318.38
2023-03-08T10:46:07.464Z,94279.41
2023-03-08T10:48:35.436Z,94305.53
2023-03-08T10:51:05.065Z,94302.50
2023-03-08T10:53:36.271Z,94267.03
2023-03-08T10:56:04.333Z,94293.75
2023-03-08T10:58:42.198Z,94311.13
2023-03-08T11:01:28.006Z,94304.16
2023-03-08T11:04:03.574Z,94261.69
2023-03-08T11:06:41.633Z,94311.75
2023-03-08T11:09:21.753Z,94309.44
2023-03-08T11:11:49.902Z,94318.88
2023-03-08T11:14:25.560Z,94308.03
2023-03-08T11:17:02.655Z,94323.25
2023-03-08T11:20:00.134Z,94319.88
2023-03-08T11:22:52.274Z,94325.31
2023-03-08T11:25:36.640Z,94325.75
2023-03-08T11:28:49.739Z,94331.00
2023-03-08T11:31:27.873Z,94320.38
2023-03-08T11:34:26.199Z,94304.09
2023-03-08T11:37:03.455Z,94306.06
2023-03-08T11:39:34.484Z,94315.44
2023-03-08T11:42:07.195Z,94314.50
2023-03-08T11:44:50.790Z,94290.88
2023-03-08T11:48:12.684Z,94293.53
2023-03-08T11:50:47.386Z,94293.25
2023-03-08T11:53:20.174Z,94297.75
2023-03-08T11:56:09.119Z,94303.56
2023-03-08T11:58:40.276Z,94297.72
2023-03-08T12:01:14.682Z,94252.91
2023-03-08T12:03:45.893Z,94290.28
2023-03-08T12:06:29.333Z,94060.28
2023-03-08T12:09:00.695Z,94276.78
2023-03-08T12:11:31.383Z,94289.25
2023-03-08T12:14:07.964Z,94281.13
2023-03-08T12:16:40.543Z,94268.72
2023-03-08T12:19:20.040Z,94291.75
2023-03-08T12:21:54.113Z,94280.38
2023-03-08T12:24:29.743Z,94300.31
2023-03-08T12:27:06.299Z,94293.44
2023-03-08T12:29:37.334Z,94288.00
2023-03-08T12:32:06.446Z,94304.81
2023-03-08T12:34:39.746Z,94294.22
2023-03-08T12:37:22.031Z,94292.63
2023-03-08T12:40:05.216Z,94290.94
2023-03-08T12:42:37.680Z,94252.53
2023-03-08T12:45:30.892Z,94287.91
2023-03-08T12:48:05.429Z,94298.72
2023-03-08T12:50:37.343Z,94135.50
2023-03-08T12:53:24.545Z,94281.41
2023-03-08T12:56:03.294Z,94268.94
2023-03-08T12:58:33.303Z,94236.78
2023-03-08T13:01:05.067Z,94300.09
2023-03-08T13:03:40.661Z,94287.91
2023-03-08T13:06:39.176Z,94254.94
2023-03-08T13:09:17.209Z,94283.47
2023-03-08T13:11:48.679Z,94295.72
2023-03-08T13:14:28.353Z,94285.16
2023-03-08T13:16:56.366Z,94279.69
2023-03-08T13:19:27.613Z,94281.44
2023-03-08T13:22:04.157Z,94292.66
2023-03-08T13:24:40.720Z,94303.50
2023-03-08T13:27:21.715Z,94302.53
2023-03-08T13:29:51.883Z,94298.63
2023-03-08T13:32:24.897Z,94257.97
2023-03-08T13:35:01.257Z,94302.16
2023-03-08T13:37:32.353Z,94291.75
2023-03-08T13:40:02.336Z,94280.25
2023-03-08T13:42:34.895Z,94298.91
2023-03-08T13:45:10.508Z,94299.06
2023-03-08T13:47:41.098Z,94284.91
2023-03-08T13:50:12.477Z,94302.94
2023-03-08T13:55:40.773Z,94296.25
2023-03-08T13:58:09.044Z,94263.09
2023-03-08T14:00:40.072Z,94286.97
2023-03-08T14:03:23.208Z,94275.56
2023-03-08T14:05:54.850Z,94263.22
2023-03-08T14:08:25.139Z,94263.94
2023-03-08T14:10:57.193Z,94263.97
2023-03-08T14:13:31.840Z,94241.75
2023-03-08T14:16:04.473Z,94274.75
2023-03-08T14:18:35.453Z,94282.03
2023-03-08T14:21:15.045Z,94295.31
2023-03-08T14:23:44.908Z,94288.34
2023-03-08T14:26:29.626Z,94278.53
2023-03-08T14:29:21.975Z,94232.94
2023-03-08T14:34:21.650Z,94288.38
2023-03-08T14:36:55.804Z,94286.72
2023-03-08T14:39:28.349Z,94292.22
2023-03-08T14:41:57.885Z,94296.13
2023-03-08T14:44:28.772Z,94261.28
2023-03-08T14:46:59.792Z,94311.34
2023-03-08T14:49:31.248Z,94284.91
2023-03-08T14:51:59.676Z,94278.38
2023-03-08T14:54:34.943Z,94279.78
2023-03-08T14:57:19.730Z,94274.81
2023-03-08T14:59:48.978Z,94265.91
2023-03-08T15:02:18.492Z,94288.88
2023-03-08T15:04:47.352Z,94237.63
2023-03-08T15:07:18.361Z,94166.31
2023-03-08T15:09:46.352Z,94254.94
2023-03-08T15:12:16.168Z,94240.91
2023-03-08T15:14:46.786Z,94232.53
2023-03-08T15:17:14.635Z,94220.44
2023-03-08T15:19:45.242Z,94233.47
2023-03-08T15:22:15.469Z,94219.75
2023-03-08T15:24:45.711Z,94211.75
2023-03-08T15:27:16.997Z,94218.72
2023-03-08T15:29:46.821Z,94230.56
2023-03-08T15:32:14.833Z,94230.25
2023-03-08T15:34:42.828Z,94246.94
2023-03-08T15:37:14.112Z,94081.47
2023-03-08T15:39:42.048Z,94215.69
2023-03-08T15:42:10.089Z,94225.19
2023-03-08T15:44:39.400Z,94212.66
2023-03-08T15:47:11.405Z,94225.03
2023-03-08T15:49:43.650Z,94215.69
2023-03-08T15:52:14.391Z,94221.06
2023-03-08T15:54:47.223Z,94215.63
2023-03-08T15:57:15.061Z,94219.41
2023-03-08T15:59:48.249Z,94227.59
2023-03-08T16:02:24.227Z,94216.84
2023-03-08T16:04:55.859Z,94234.69
2023-03-08T16:07:23.906Z,94230.91
2023-03-08T16:09:54.428Z,94210.81
2023-03-08T16:12:22.391Z,94232.63
2023-03-08T16:14:55.424Z,94235.09
2023-03-08T16:17:23.294Z,94246.63
2023-03-08T16:19:51.197Z,94242.72
2023-03-08T16:22:20.570Z,94244.31
2023-03-08T16:24:50.105Z,94240.09
2023-03-08T16:27:21.301Z,94207.00
2023-03-08T16:29:53.325Z,94234.66
2023-03-08T16:32:21.466Z,94227.63
2023-03-08T16:34:57.375Z,94226.41
2023-03-08T16:37:26.311Z,94229.66
2023-03-08T16:39:54.646Z,94231.69
2023-03-08T16:42:27.815Z,94226.41
2023-03-08T16:44:57.669Z,94230.94
2023-03-08T16:47:32.323Z,94200.00
2023-03-08T16:50:03.520Z,94215.56
2023-03-08T16:55:26.876Z,94169.22
2023-03-08T16:57:57.719Z,94190.63
2023-03-08T17:00:27.553Z,94174.19
2023-03-08T17:02:58.201Z,94202.63
2023-03-08T17:05:29.305Z,94198.97
2023-03-08T17:08:02.096Z,93973.19
2023-03-08T17:10:30.031Z,94203.09
2023-03-08T17:12:57.929Z,94188.78
2023-03-08T17:15:28.520Z,94203.28
2023-03-08T17:17:57.117Z,94207.38
2023-03-08T17:20:25.200Z,94210.66
2023-03-08T17:22:56.235Z,94216.47
2023-03-08T17:25:25.294Z,94217.38
2023-03-08T17:27:57.309Z,94209.59
2023-03-08T17:30:25.369Z,94202.44
2023-03-08T17:32:54.630Z,94211.13
2023-03-08T17:35:25.817Z,94208.81
2023-03-08T17:37:56.656Z,94182.22
2023-03-08T17:40:27.479Z,94218.25
2023-03-08T17:42:56.710Z,94203.53
2023-03-08T17:45:24.664Z,94220.19
2023-03-08T17:48:01.558Z,94221.44
2023-03-08T17:50:30.950Z,94219.41
2023-03-08T17:53:01.226Z,94173.03
2023-03-08T17:55:29.304Z,94225.75
2023-03-08T17:58:06.143Z,93994.91
2023-03-08T18:00:34.234Z,94213.72
2023-03-08T18:03:03.859Z,94212.16
2023-03-08T18:05:31.721Z,94211.25
2023-03-08T18:07:59.576Z,94199.75
2023-03-08T18:10:30.108Z,94204.88
2023-03-08T18:12:57.870Z,94204.31
2023-03-08T18:15:25.778Z,94184.09
2023-03-08T18:17:53.663Z,94162.06
2023-03-08T18:20:26.176Z,94197.75
2023-03-08T18:22:54.553Z,94169.22
2023-03-08T18:25:26.770Z,94197.31
2023-03-08T18:27:56.736Z,94198.88
2023-03-08T18:30:24.604Z,94193.28
2023-03-08T18:32:55.604Z,94146.06
2023-03-08T18:35:27.189Z,94209.91
2023-03-08T18:38:00.307Z,94178.59
2023-03-08T18:40:29.478Z,94210.50
2023-03-08T18:43:03.328Z,94166.09
2023-03-08T18:45:34.186Z,94207.13
2023-03-08T18:48:04.703Z,94202.50
2023-03-08T18:50:41.111Z,94172.63
2023-03-08T18:53:12.369Z,94192.03
2023-03-08T18:55:42.817Z,94193.00
2023-03-08T18:58:10.912Z,94168.78
2023-03-08T19:00:43.836Z,94172.34
2023-03-08T19:03:29.487Z,94197.78
2023-03-08T19:06:02.918Z,94196.84
2023-03-08T19:08:38.887Z,94183.84
2023-03-08T19:11:16.228Z,94200.28
2023-03-08T19:13:48.062Z,94190.13
2023-03-08T19:16:19.913Z,94195.66
2023-03-08T19:18:48.674Z,94198.34
2023-03-08T19:21:22.041Z,94164.59
2023-03-08T19:23:57.172Z,94193.44
2023-03-08T19:26:41.150Z,94195.75
2023-03-08T19:29:12.900Z,94162.38
2023-03-08T19:31:45.728Z,94169.63
2023-03-08T19:34:17.226Z,94154.84
2023-03-08T19:36:47.577Z,94163.41
2023-03-08T19:39:17.300Z,94181.59
2023-03-08T19:41:46.404Z,94180.88
2023-03-08T19:44:15.425Z,94185.56
2023-03-08T19:46:45.367Z,94160.69
2023-03-08T19:49:15.055Z,94189.75
2023-03-08T19:51:47.307Z,94182.31
2023-03-08T19:54:19.088Z,94188.16
2023-03-08T19:56:47.012Z,94157.41
2023-03-08T19:59:20.491Z,94192.69
2023-03-08T20:01:56.955Z,94201.22
2023-03-08T20:04:26.870Z,94194.34
2023-03-08T20:06:55.331Z,94202.25
2023-03-08T20:09:24.548Z,94196.50
2023-03-08T20:11:57.332Z,94210.50
2023-03-08T20:14:27.701Z,94214.84
2023-03-08T20:17:01.519Z,94225.78
2023-03-08T20:19:32.079Z,94219.00
2023-03-08T20:22:02.462Z,94218.88
2023-03-08T20:24:31.737Z,94227.59
2023-03-08T20:27:08.691Z,94214.63
2023-03-08T20:29:39.780Z,94120.97
2023-03-08T20:32:10.100Z,94214.47
2023-03-08T20:34:38.761Z,94234.13
2023-03-08T20:37:10.761Z,94232.41
2023-03-08T20:39:40.016Z,94223.69
2023-03-08T20:42:11.093Z,94230.03
2023-03-08T20:44:44.146Z,94193.50
2023-03-08T20:47:12.271Z,94259.47
2023-03-08T20:49:41.673Z,94255.81
2023-03-08T20:52:11.015Z,94155.63
2023-03-08T20:54:43.491Z,94221.59
2023-03-08T20:57:11.440Z,94239.66
2023-03-08T20:59:44.449Z,94244.63
2023-03-08T21:02:15.402Z,94224.16
2023-03-08T21:04:46.852Z,94231.47
2023-03-08T21:07:17.515Z,94237.66
2023-03-08T21:09:49.199Z,94251.22
2023-03-08T21:12:17.783Z,94252.63
2023-03-08T21:14:54.079Z,94240.38
2023-03-08T21:17:26.104Z,94248.31
2023-03-08T21:19:57.064Z,94249.88
2023-03-08T21:22:27.123Z,94216.28
2023-03-08T21:24:57.461Z,94246.28
2023-03-08T21:27:25.266Z,94239.56
2023-03-08T21:29:56.402Z,94235.91
2023-03-08T21:32:28.044Z,94247.72
2023-03-08T21:34:56.279Z,94243.44
2023-03-08T21:37:24.221Z,94234.00
2023-03-08T21:39:52.073Z,94231.88
2023-03-08T21:42:24.327Z,94239.63
2023-03-08T21:44:55.031Z,94238.75
2023-03-08T21:47:23.250Z,94230.66
2023-03-08T21:49:51.126Z,94235.41
2023-03-08T21:52:18.893Z,94247.41
2023-03-08T21:54:46.732Z,94256.59
2023-03-08T21:57:15.389Z,94204.31
2023-03-08T21:59:44.584Z,94236.81
2023-03-08T22:02:12.429Z,94254.00
2023-03-08T22:04:40.376Z,94202.09
2023-03-08T22:07:09.469Z,94188.81
2023-03-08T22:09:37.216Z,94245.84
2023-03-08T22:12:09.164Z,94237.75
2023-03-08T22:14:36.941Z,94221.00
2023-03-08T22:17:07.333Z,94215.34
2023-03-08T22:19:35.126Z,94169.66
2023-03-08T22:22:10.884Z,94224.25
2023-03-08T22:24:40.250Z,94235.28
2023-03-08T22:27:13.419Z,94209.78
2023-03-08T22:29:41.932Z,94213.13
2023-03-08T22:32:16.587Z,94206.50
2023-03-08T22:34:44.519Z,94170.00
2023-03-08T22:37:12.402Z,94168.94
2023-03-08T22:39:40.875Z,94191.75
2023-03-08T22:42:08.851Z,94204.38
2023-03-08T22:44:40.536Z,94208.97
2023-03-08T22:47:08.656Z,94213.91
2023-03-08T22:49:43.605Z,94205.53
2023-03-08T22:52:11.575Z,94216.53
2023-03-08T22:54:39.383Z,94199.16
2023-03-08T22:57:07.247Z,94189.72
2023-03-08T22:59:38.005Z,94120.72
2023-03-08T23:02:07.974Z,94112.50
2023-03-08T23:04:40.308Z,94145.44
2023-03-08T23:07:08.624Z,94125.66
2023-03-08T23:09:36.644Z,94111.19
2023-03-08T23:12:08.178Z,94137.16
2023-03-08T23:14:36.848Z,94146.06
2023-03-08T23:17:04.907Z,94134.81
2023-03-08T23:19:37.281Z,94123.72
2023-03-08T23:22:10.468Z,94133.56
2023-03-08T23:24:47.370Z,94133.13
2023-03-08T23:27:15.996Z,94124.00
2023-03-08T23:29:46.524Z,94121.06
2023-03-08T23:32:14.615Z,94086.09
2023-03-08T23:34:42.980Z,94106.50
2023-03-08T23:37:17.350Z,94062.34
2023-03-08T23:39:51.304Z,94052.13
2023-03-08T23:42:23.980Z,94036.66
2023-03-08T23:44:52.010Z,94035.94
2023-03-08T23:47:19.898Z,94056.41
2023-03-08T23:49:50.020Z,94054.28
2023-03-08T23:52:21.105Z,94045.69
2023-03-08T23:54:49.394Z,94019.94
2023-03-08T23:57:18.805Z,94025.94
2023-03-08T23:59:46.640Z,94037.84
